Time;durP1;ratioP1;P1;durP2;ratioP2;P2;SDS_P1;SDS_P2;PMS_P1;PMS_P2;Temp;Humidity;BMP_temperature;BMP_pressure;BME280_temperature;BME280_humidity;BME280_pressure;Samples;Min_cycle;Max_cycle;Signal;HPM_P1;HPM_P2
2024/04/11 00:02:19;;;;;;;4.07;1.77;;;7.70;99.90;;;;;;5459437;26;20281;-58
2024/04/11 00:04:45;;;;;;;3.13;1.77;;;7.70;99.90;;;;;;5463502;26;20718;-58
2024/04/11 00:07:13;;;;;;;3.17;1.80;;;7.60;99.90;;;;;;5461849;26;20232;-58
2024/04/11 00:09:39;;;;;;;4.10;2.10;;;7.50;99.90;;;;;;5456748;26;20226;-58
2024/04/11 00:12:10;;;;;;;6.50;1.60;;;7.40;99.90;;;;;;5457236;26;20754;-57
2024/04/11 00:14:36;;;;;;;4.50;2.00;;;7.40;99.90;;;;;;5457361;26;20226;-57
2024/04/11 00:17:04;;;;;;;4.13;1.57;;;7.40;99.90;;;;;;5457357;26;20234;-57
2024/04/11 00:19:35;;;;;;;3.23;1.93;;;7.40;99.90;;;;;;5463075;26;20757;-58
2024/04/11 00:22:05;;;;;;;3.13;1.70;;;7.40;99.90;;;;;;5463213;26;20229;-58
2024/04/11 00:24:30;;;;;;;3.90;2.03;;;7.40;99.90;;;;;;5456809;26;20230;-58
2024/04/11 00:26:59;;;;;;;3.67;1.80;;;7.50;99.90;;;;;;5457093;26;20234;-58
2024/04/11 00:29:25;;;;;;;5.60;1.70;;;7.50;99.90;;;;;;5461158;26;20588;-58
2024/04/11 00:31:54;;;;;;;3.93;1.80;;;7.50;99.90;;;;;;5463310;26;20235;-58
2024/04/11 00:34:23;;;;;;;4.70;1.70;;;7.40;99.90;;;;;;5459793;26;20263;-59
2024/04/11 00:36:55;;;;;;;3.53;1.70;;;7.30;99.90;;;;;;5457187;26;20722;-58
2024/04/11 00:39:21;;;;;;;3.27;1.50;;;7.30;99.90;;;;;;5460424;26;20593;-58
2024/04/11 00:41:50;;;;;;;4.63;1.60;;;7.30;99.90;;;;;;5463240;26;20229;-58
2024/04/11 00:44:17;;;;;;;6.97;1.80;;;7.30;99.90;;;;;;5460504;26;20272;-58
2024/04/11 00:46:46;;;;;;;4.63;1.80;;;7.30;99.90;;;;;;5456941;26;20634;-58
2024/04/11 00:49:13;;;;;;;4.90;1.80;;;7.30;99.90;;;;;;5457564;26;20273;-58
2024/04/11 00:51:42;;;;;;;5.80;1.90;;;7.30;99.90;;;;;;5462884;26;20758;-57
2024/04/11 00:54:12;;;;;;;3.27;1.53;;;7.30;99.90;;;;;;5462917;26;20283;-58
2024/04/11 00:56:43;;;;;;;1.83;1.30;;;7.20;99.90;;;;;;5456875;26;20230;-58
2024/04/11 00:59:10;;;;;;;2.70;1.70;;;7.30;99.90;;;;;;5456872;26;20684;-58
2024/04/11 01:01:38;;;;;;;4.07;2.00;;;7.30;99.90;;;;;;5462900;26;20647;-58
2024/04/11 01:04:04;;;;;;;2.67;1.90;;;7.30;99.90;;;;;;5462557;26;20233;-57
2024/04/11 01:07:06;;;;;;;4.77;1.70;;;7.20;99.90;;;;;;5455303;26;20707;-58
2024/04/11 01:09:34;;;;;;;4.07;1.60;;;7.20;99.90;;;;;;5461525;26;20233;-58
2024/04/11 01:12:03;;;;;;;4.67;1.77;;;7.10;99.90;;;;;;5462347;26;20229;-58
2024/04/11 01:14:31;;;;;;;4.33;1.70;;;7.10;99.90;;;;;;5457294;26;20230;-57
2024/04/11 01:16:59;;;;;;;2.70;1.53;;;7.10;99.90;;;;;;5456374;26;20231;-58
2024/04/11 01:19:25;;;;;;;3.00;1.90;;;7.10;99.90;;;;;;5460307;26;20287;-58
2024/04/11 01:21:55;;;;;;;2.30;1.60;;;7.10;99.90;;;;;;5462493;26;20229;-58
2024/04/11 01:24:24;;;;;;;5.17;1.73;;;7.20;99.90;;;;;;5459057;26;20225;-58
2024/04/11 01:26:52;;;;;;;6.30;1.67;;;7.20;99.90;;;;;;5456234;26;20342;-57
2024/04/11 01:29:18;;;;;;;3.33;2.00;;;7.20;99.90;;;;;;5458322;26;20230;-58
2024/04/11 01:31:47;;;;;;;3.40;2.00;;;7.10;99.90;;;;;;5462436;26;20276;-56
2024/04/11 01:34:13;;;;;;;2.97;1.77;;;7.10;99.90;;;;;;5461014;26;20225;-57
2024/04/11 01:36:41;;;;;;;5.53;2.00;;;7.20;99.90;;;;;;5456243;26;20230;-57
2024/04/11 01:39:09;;;;;;;4.00;1.90;;;7.20;99.90;;;;;;5455701;26;20225;-57
2024/04/11 01:41:41;;;;;;;4.83;1.70;;;7.20;99.90;;;;;;5456205;26;20234;-57
2024/04/11 01:44:06;;;;;;;3.40;1.77;;;7.30;99.90;;;;;;5455847;26;20234;-57
2024/04/11 01:46:37;;;;;;;5.43;1.90;;;7.30;99.90;;;;;;5462010;26;20233;-57
2024/04/11 01:49:04;;;;;;;7.37;1.90;;;7.30;99.90;;;;;;5461746;26;20232;-57
2024/04/11 01:51:33;;;;;;;4.07;1.90;;;7.30;99.90;;;;;;5456327;26;20268;-56
2024/04/11 01:53:58;;;;;;;1.70;1.47;;;7.30;99.90;;;;;;5452986;26;20233;-57
2024/04/11 01:56:29;;;;;;;3.97;2.00;;;7.40;99.90;;;;;;5457866;26;20287;-57
2024/04/11 01:58:59;;;;;;;5.30;2.00;;;7.30;99.90;;;;;;5455290;26;20347;-57
2024/04/11 02:01:33;;;;;;;3.87;1.97;;;7.30;99.90;;;;;;5459870;26;20277;-56
2024/04/11 02:03:58;;;;;;;3.67;1.93;;;7.30;99.90;;;;;;5461694;26;20264;-56
2024/04/11 02:06:29;;;;;;;4.47;2.10;;;7.40;99.90;;;;;;5457973;26;20294;-58
2024/04/11 02:08:56;;;;;;;4.37;2.10;;;7.40;99.90;;;;;;5455443;26;20712;-57
2024/04/11 02:11:25;;;;;;;4.00;2.13;;;7.40;99.90;;;;;;5458942;26;20306;-57
2024/04/11 02:13:50;;;;;;;3.07;2.03;;;7.40;99.90;;;;;;5461685;26;20797;-57
2024/04/11 02:16:22;;;;;;;7.00;2.03;;;7.30;99.90;;;;;;5460176;26;20695;-57
2024/04/11 02:18:47;;;;;;;6.07;1.90;;;7.30;99.90;;;;;;5458756;26;20234;-57
2024/04/11 02:21:17;;;;;;;8.53;2.10;;;7.20;99.90;;;;;;5459538;26;20276;-57
2024/04/11 02:23:43;;;;;;;4.70;1.73;;;7.20;99.90;;;;;;5464889;26;20607;-57
2024/04/11 02:26:11;;;;;;;6.53;2.00;;;7.10;99.90;;;;;;5465187;26;20229;-57
2024/04/11 02:28:37;;;;;;;5.17;2.10;;;7.10;99.90;;;;;;5458151;26;20354;-57
2024/04/11 02:31:06;;;;;;;3.10;1.63;;;7.00;99.90;;;;;;5458759;26;20642;-57
2024/04/11 02:33:36;;;;;;;2.13;1.70;;;7.00;99.90;;;;;;5464091;26;20560;-56
2024/04/11 02:36:06;;;;;;;5.50;1.60;;;7.00;99.90;;;;;;5464969;26;20276;-57
2024/04/11 02:38:32;;;;;;;2.67;1.70;;;6.90;99.90;;;;;;5459277;26;20230;-57
2024/04/11 02:41:00;;;;;;;4.73;2.10;;;6.90;99.90;;;;;;5458573;26;20334;-57
2024/04/11 02:43:26;;;;;;;5.33;2.23;;;6.80;99.90;;;;;;5462567;26;20280;-57
2024/04/11 02:45:57;;;;;;;5.33;1.93;;;6.70;99.90;;;;;;5464800;26;20229;-56
2024/04/11 02:48:26;;;;;;;3.47;1.60;;;6.60;99.90;;;;;;5461887;26;20233;-57
2024/04/11 02:50:57;;;;;;;4.73;1.63;;;6.50;99.90;;;;;;5458186;26;20280;-56
2024/04/11 02:53:23;;;;;;;2.47;1.50;;;6.40;99.90;;;;;;5461676;26;20234;-57
2024/04/11 02:55:54;;;;;;;6.57;1.70;;;6.30;99.90;;;;;;5465191;26;20776;-57
2024/04/11 02:58:22;;;;;;;2.73;1.77;;;6.20;99.90;;;;;;5461921;26;20710;-57
2024/04/11 03:00:52;;;;;;;4.97;1.90;;;6.20;99.90;;;;;;5457448;26;20230;-56
2024/04/11 03:03:17;;;;;;;4.57;1.83;;;6.10;99.90;;;;;;5459782;26;20239;-58
2024/04/11 03:05:46;;;;;;;3.43;1.73;;;6.10;99.90;;;;;;5464779;26;20316;-56
2024/04/11 03:08:14;;;;;;;4.23;1.70;;;6.00;99.90;;;;;;5463921;26;20641;-57
2024/04/11 03:10:44;;;;;;;5.83;2.10;;;6.10;99.90;;;;;;5457395;26;20768;-58
2024/04/11 03:13:10;;;;;;;9.97;2.13;;;6.00;99.90;;;;;;5457747;26;20234;-56
2024/04/11 03:15:38;;;;;;;4.90;2.20;;;6.00;99.90;;;;;;5457835;26;20586;-57
2024/04/11 03:18:04;;;;;;;5.87;1.70;;;6.00;99.90;;;;;;5458022;26;20238;-56
2024/04/11 03:20:33;;;;;;;4.00;1.70;;;6.00;99.90;;;;;;5462228;26;20268;-56
2024/04/11 03:22:59;;;;;;;3.73;1.60;;;6.00;99.90;;;;;;5464239;26;20276;-57
2024/04/11 03:25:31;;;;;;;3.30;1.70;;;6.00;99.90;;;;;;5460651;26;20718;-57
2024/04/11 03:27:57;;;;;;;2.97;1.73;;;6.00;99.90;;;;;;5457363;26;20269;-57
2024/04/11 03:30:29;;;;;;;3.97;1.77;;;6.00;99.90;;;;;;5460228;26;20234;-57
2024/04/11 03:32:55;;;;;;;3.80;1.97;;;6.00;99.90;;;;;;5464163;26;20234;-56
2024/04/11 03:35:24;;;;;;;5.60;1.90;;;6.00;99.90;;;;;;5461644;26;20230;-57
2024/04/11 03:37:50;;;;;;;6.63;2.10;;;6.00;99.90;;;;;;5457614;26;20284;-58
2024/04/11 03:40:19;;;;;;;4.50;2.17;;;5.90;99.90;;;;;;5458653;26;20309;-56
2024/04/11 03:42:50;;;;;;;5.37;2.70;;;5.90;99.90;;;;;;5463931;26;20236;-57
2024/04/11 03:45:22;;;;;;;7.10;3.50;;;5.90;99.90;;;;;;5462692;26;20229;-57
2024/04/11 03:47:51;;;;;;;5.77;3.57;;;5.80;99.90;;;;;;5457832;26;20767;-57
2024/04/11 03:50:16;;;;;;;5.90;3.00;;;5.90;99.90;;;;;;5458438;26;20238;-57
2024/04/11 03:52:45;;;;;;;5.47;2.93;;;5.90;99.90;;;;;;5464090;26;20345;-57
2024/04/11 03:55:12;;;;;;;6.47;3.30;;;5.80;99.90;;;;;;5463967;26;20228;-55
2024/04/11 03:57:40;;;;;;;4.20;2.47;;;5.80;99.90;;;;;;5457304;26;20749;-57
2024/04/11 04:00:09;;;;;;;3.67;2.40;;;5.80;99.90;;;;;;5457067;26;20303;-57
2024/04/11 04:02:38;;;;;;;6.57;2.50;;;5.80;99.90;;;;;;5462855;26;20249;-57
2024/04/11 04:05:07;;;;;;;3.97;2.47;;;5.80;99.90;;;;;;5463951;26;20357;-57
2024/04/11 04:07:35;;;;;;;3.30;2.53;;;5.80;99.90;;;;;;5458648;26;20258;-57
2024/04/11 04:10:02;;;;;;;6.30;2.63;;;5.80;99.90;;;;;;5457002;26;20234;-57
2024/04/11 04:12:31;;;;;;;5.57;2.40;;;5.80;99.90;;;;;;5460629;26;20238;-57
2024/04/11 04:14:57;;;;;;;5.43;2.20;;;5.80;99.90;;;;;;5463344;26;20229;-56
2024/04/11 04:17:30;;;;;;;5.33;2.30;;;5.80;99.90;;;;;;5460684;26;20289;-58
2024/04/11 04:19:55;;;;;;;3.83;2.10;;;5.90;99.90;;;;;;5456781;26;20849;-57
2024/04/11 04:22:24;;;;;;;2.97;2.07;;;5.80;99.90;;;;;;5459466;26;20246;-57
2024/04/11 04:24:50;;;;;;;5.47;2.10;;;5.80;99.90;;;;;;5463183;26;20699;-57
2024/04/11 04:27:19;;;;;;;5.13;2.30;;;5.70;99.90;;;;;;5462577;26;20237;-56
2024/04/11 04:29:46;;;;;;;5.17;2.40;;;5.70;99.90;;;;;;5456630;26;20800;-57
2024/04/11 04:32:16;;;;;;;5.17;2.30;;;5.80;99.90;;;;;;5456991;26;20336;-56
2024/04/11 04:34:47;;;;;;;3.23;2.40;;;5.80;99.90;;;;;;5456931;26;20751;-57
2024/04/11 04:37:17;;;;;;;3.60;2.20;;;5.80;99.90;;;;;;5457083;26;20336;-56
2024/04/11 04:39:44;;;;;;;5.00;2.60;;;5.70;99.90;;;;;;5462723;26;20567;-57
2024/04/11 04:42:13;;;;;;;4.40;2.20;;;5.80;99.90;;;;;;5463198;26;20734;-56
2024/04/11 04:44:40;;;;;;;5.03;2.53;;;5.80;99.90;;;;;;5456995;26;20226;-57
2024/04/11 04:47:16;;;;;;;5.80;2.30;;;5.80;99.90;;;;;;5457035;26;20238;-56
2024/04/11 04:49:45;;;;;;;6.33;2.10;;;5.80;99.90;;;;;;5456872;26;20234;-57
2024/04/11 04:52:14;;;;;;;8.50;2.67;;;5.80;99.90;;;;;;5456787;26;20234;-57
2024/04/11 04:54:40;;;;;;;3.37;2.10;;;5.90;99.90;;;;;;5457152;26;20277;-57
2024/04/11 04:57:11;;;;;;;7.30;2.50;;;5.90;99.90;;;;;;5457284;26;20339;-56
2024/04/11 04:59:37;;;;;;;6.00;2.40;;;6.00;99.90;;;;;;5461891;26;20245;-56
2024/04/11 05:02:06;;;;;;;3.30;1.83;;;6.10;99.90;;;;;;5462688;26;20229;-57
2024/04/11 05:04:32;;;;;;;3.13;1.80;;;6.10;99.90;;;;;;5458442;26;20804;-56
2024/04/11 05:07:03;;;;;;;4.97;2.30;;;6.10;99.90;;;;;;5456636;26;20739;-57
2024/04/11 05:09:29;;;;;;;6.30;2.10;;;6.10;99.90;;;;;;5459872;26;20269;-56
2024/04/11 05:11:57;;;;;;;5.77;3.20;;;6.00;99.90;;;;;;5462304;26;20562;-57
2024/04/11 05:14:23;;;;;;;7.27;3.53;;;6.00;99.90;;;;;;5460254;26;20229;-56
2024/04/11 05:16:52;;;;;;;4.03;2.10;;;6.10;99.90;;;;;;5456281;26;20230;-56
2024/04/11 05:19:18;;;;;;;6.57;2.53;;;6.20;99.90;;;;;;5456793;26;20326;-57
2024/04/11 05:21:46;;;;;;;6.67;2.50;;;6.40;99.90;;;;;;5462614;26;20255;-58
2024/04/11 05:24:15;;;;;;;6.10;2.37;;;6.60;99.90;;;;;;5462953;26;20686;-58
2024/04/11 05:26:48;;;;;;;7.97;2.13;;;6.80;99.90;;;;;;5456621;26;20265;-55
2024/04/11 05:29:15;;;;;;;4.97;2.67;;;6.90;99.90;;;;;;5455847;26;20230;-56
2024/04/11 05:31:45;;;;;;;7.77;2.67;;;7.00;99.90;;;;;;5447629;26;20241;-56
2024/04/11 05:34:13;;;;;;;6.57;2.50;;;7.20;99.90;;;;;;5462501;26;20590;-56
2024/04/11 05:36:44;;;;;;;11.57;2.67;;;7.40;99.90;;;;;;5456390;26;20351;-55
2024/04/11 05:39:10;;;;;;;9.30;2.33;;;7.50;99.90;;;;;;5455813;26;20230;-56
2024/04/11 05:41:46;;;;;;;12.80;2.40;;;7.70;99.90;;;;;;5462151;26;20332;-56
2024/04/11 05:44:12;;;;;;;6.87;2.50;;;8.10;99.90;;;;;;5461899;26;20287;-57
2024/04/11 05:46:41;;;;;;;6.77;2.50;;;8.90;99.90;;;;;;5456105;26;20242;-57
2024/04/11 05:49:06;;;;;;;5.83;2.00;;;9.90;99.90;;;;;;5455643;26;20230;-57
2024/04/11 05:51:35;;;;;;;4.97;2.20;;;10.90;99.90;;;;;;5458619;26;20699;-57
2024/04/11 05:54:01;;;;;;;6.30;2.47;;;11.80;99.90;;;;;;5461608;26;20233;-57
2024/04/11 05:56:30;;;;;;;5.23;2.53;;;12.70;99.90;;;;;;5458534;26;20236;-58
2024/04/11 05:58:59;;;;;;;4.47;2.47;;;13.50;99.90;;;;;;5454370;26;20246;-56
2024/04/11 06:01:33;;;;;;;11.97;2.40;;;14.30;98.90;;;;;;5458158;26;20294;-56
2024/04/11 06:04:00;;;;;;;6.27;2.63;;;15.10;97.70;;;;;;5461853;26;20236;-56
2024/04/11 06:06:28;;;;;;;5.43;2.10;;;15.90;95.60;;;;;;5459320;26;20263;-55
2024/04/11 06:08:55;;;;;;;6.13;2.15;;;16.60;94.70;;;;;;5455942;26;20704;-56
2024/04/11 06:11:24;;;;;;;3.70;1.90;;;17.30;93.90;;;;;;5457163;26;20230;-56
2024/04/11 06:13:53;;;;;;;5.35;2.53;;;18.10;92.20;;;;;;5451117;20;20808;-58
2024/04/11 06:16:24;;;;;;;4.15;2.47;;;18.80;91.40;;;;;;5424437;26;20274;-58
2024/04/11 06:18:54;;;;;;;4.35;1.73;;;19.40;90.20;;;;;;5431501;26;20230;-58
2024/04/11 06:21:32;;;;;;;8.23;2.05;;;19.80;87.90;;;;;;5430285;26;20242;-57
2024/04/11 06:23:59;;;;;;;7.95;2.10;;;20.40;85.80;;;;;;5424082;26;20543;-61
2024/04/11 06:26:27;;;;;;;4.75;2.50;;;21.10;82.00;;;;;;5426455;26;20685;-60
2024/04/11 06:28:53;;;;;;;4.20;1.83;;;21.70;81.30;;;;;;5431564;26;20230;-60
2024/04/11 06:31:28;;;;;;;5.47;1.65;;;22.20;78.80;;;;;;5431229;26;20610;-60
2024/04/11 06:33:54;;;;;;;4.80;1.90;;;22.60;77.60;;;;;;5423742;26;20281;-59
2024/04/11 06:36:23;;;;;;;5.22;1.98;;;23.00;75.40;;;;;;5424745;26;20590;-59
2024/04/11 06:38:51;;;;;;;6.60;2.50;;;23.40;74.20;;;;;;5431400;26;20265;-59
2024/04/11 06:41:22;;;;;;;6.95;2.72;;;23.60;73.10;;;;;;5431631;26;20644;-60
2024/04/11 06:43:48;;;;;;;5.22;2.38;;;24.00;73.10;;;;;;5423923;26;20235;-60
2024/04/11 06:46:17;;;;;;;7.65;2.47;;;24.40;71.90;;;;;;5423667;26;20239;-59
2024/04/11 06:48:46;;;;;;;8.77;2.63;;;24.90;70.20;;;;;;5431279;26;20329;-60
2024/04/11 06:51:17;;;;;;;4.05;2.25;;;25.40;68.90;;;;;;5431513;26;21024;-60
2024/04/11 06:53:43;;;;;;;5.63;2.50;;;25.80;67.70;;;;;;5398409;26;20792;-59
2024/04/11 06:56:15;;;;;;;6.25;2.55;;;26.30;64.50;;;;;;5431216;26;20241;-59
2024/04/11 06:58:42;;;;;;;6.05;2.38;;;26.30;65.40;;;;;;5423783;26;20607;-61
2024/04/11 07:01:13;;;;;;;11.02;2.47;;;26.40;64.30;;;;;;5423163;26;20279;-60
2024/04/11 07:03:40;;;;;;;4.72;2.20;;;26.60;63.80;;;;;;5430962;26;20269;-65
2024/04/11 07:06:21;;;;;;;4.55;2.15;;;26.40;63.10;;;;;;5435213;26;20234;-61
2024/04/11 07:08:47;;;;;;;8.43;2.60;;;25.50;63.80;;;;;;5403427;26;20229;-60
2024/04/11 07:11:18;;;;;;;4.57;2.08;;;24.50;65.10;;;;;;5434844;26;20707;-60
2024/04/11 07:13:45;;;;;;;7.28;2.22;;;23.40;67.00;;;;;;5426608;26;20235;-61
2024/04/11 07:16:16;;;;;;;3.63;2.00;;;22.50;69.30;;;;;;5426837;26;20883;-60
2024/04/11 07:18:44;;;;;;;4.53;2.00;;;22.70;69.50;;;;;;5434158;26;20264;-60
2024/04/11 07:21:17;;;;;;;7.20;2.33;;;23.90;67.50;;;;;;5434592;26;20237;-60
2024/04/11 07:23:43;;;;;;;4.15;2.22;;;25.20;64.00;;;;;;5426069;26;20235;-59
2024/04/11 07:26:12;;;;;;;6.68;2.40;;;25.90;62.70;;;;;;5426506;26;20235;-60
2024/04/11 07:28:40;;;;;;;6.00;2.22;;;26.60;60.80;;;;;;5432675;26;20576;-60
2024/04/11 07:31:09;;;;;;;8.80;2.30;;;27.60;59.60;;;;;;5434397;26;20263;-61
2024/04/11 07:33:35;;;;;;;7.68;2.63;;;28.50;57.80;;;;;;5428826;26;20577;-61
2024/04/11 07:36:07;;;;;;;5.32;2.97;;;29.10;56.90;;;;;;5426473;26;20327;-59
2024/04/11 07:38:35;;;;;;;8.45;2.72;;;29.30;55.70;;;;;;5431351;26;20239;-60
2024/04/11 07:41:16;;;;;;;6.38;2.35;;;29.30;55.40;;;;;;5434354;26;20234;-60
2024/04/11 07:43:45;;;;;;;6.90;2.45;;;29.10;54.50;;;;;;5426353;26;20360;-59
2024/04/11 07:46:14;;;;;;;3.55;1.85;;;27.80;57.40;;;;;;5426161;26;20243;-59
2024/04/11 07:48:41;;;;;;;5.05;2.40;;;27.00;58.80;;;;;;5432388;26;20273;-59
2024/04/11 07:51:09;;;;;;;4.90;2.25;;;26.80;60.10;;;;;;5433794;26;20229;-59
2024/04/11 07:53:38;;;;;;;5.25;2.20;;;27.40;59.30;;;;;;5428747;26;20234;-58
2024/04/11 07:56:06;;;;;;;6.40;2.00;;;27.90;57.20;;;;;;5425930;26;20235;-58
2024/04/11 07:58:33;;;;;;;4.00;2.10;;;26.70;58.80;;;;;;5429948;26;20270;-58
2024/04/11 08:01:02;;;;;;;4.55;1.85;;;26.30;59.70;;;;;;5433336;26;20238;-59
2024/04/11 08:03:27;;;;;;;5.50;3.35;;;27.10;59.60;;;;;;5431070;26;20619;-59
2024/04/11 08:05:56;;;;;;;5.05;2.30;;;28.30;58.00;;;;;;5425793;26;20239;-59
2024/04/11 08:08:22;;;;;;;2.92;1.67;;;29.20;56.00;;;;;;5426325;26;20277;-59
2024/04/11 08:11:02;;;;;;;5.00;2.47;;;29.40;55.20;;;;;;5433058;26;20234;-59
2024/04/11 08:13:28;;;;;;;3.78;1.98;;;29.40;55.40;;;;;;5430769;26;20723;-59
2024/04/11 08:15:57;;;;;;;3.75;1.90;;;28.80;55.40;;;;;;5424669;26;20243;-58
2024/04/11 08:18:22;;;;;;;4.28;2.75;;;27.60;56.80;;;;;;5425801;26;20231;-58
2024/04/11 08:20:51;;;;;;;5.47;2.65;;;26.30;59.30;;;;;;5432810;26;20238;-58
2024/04/11 08:23:20;;;;;;;5.50;2.80;;;25.10;61.10;;;;;;5433117;26;20234;-59
2024/04/11 08:25:46;;;;;;;3.50;1.85;;;24.00;63.10;;;;;;5399768;26;20226;-59
2024/04/11 08:28:17;;;;;;;5.40;2.28;;;22.90;65.90;;;;;;5433427;26;20230;-59
2024/04/11 08:30:45;;;;;;;6.78;2.20;;;21.50;69.10;;;;;;5425861;26;20274;-59
2024/04/11 08:33:14;;;;;;;9.70;2.28;;;20.40;71.60;;;;;;5425293;26;20239;-59
2024/04/11 08:35:44;;;;;;;7.60;2.88;;;19.80;72.70;;;;;;5431900;26;20249;-59
2024/04/11 08:38:13;;;;;;;4.72;2.00;;;19.50;73.40;;;;;;5433155;26;20311;-60
2024/04/11 08:40:44;;;;;;;8.35;2.72;;;19.30;73.90;;;;;;5427175;26;20263;-59
2024/04/11 08:43:15;;;;;;;7.70;2.40;;;19.10;74.30;;;;;;5425008;26;20273;-60
2024/04/11 08:45:43;;;;;;;3.95;2.35;;;18.60;75.40;;;;;;5431169;26;22697;-59
2024/04/11 08:48:12;;;;;;;5.15;2.22;;;18.20;77.70;;;;;;5433023;26;20268;-60
2024/04/11 08:50:41;;;;;;;8.65;2.30;;;18.00;78.10;;;;;;5426782;26;20272;-60
2024/04/11 08:53:12;;;;;;;7.30;1.92;;;17.90;77.10;;;;;;5424677;26;20386;-60
2024/04/11 08:55:40;;;;;;;6.07;2.47;;;17.90;76.90;;;;;;5430162;26;20239;-60
2024/04/11 08:58:09;;;;;;;8.63;2.50;;;17.80;78.30;;;;;;5432868;26;20573;-60
2024/04/11 09:00:39;;;;;;;8.60;2.60;;;17.70;79.00;;;;;;5428293;26;20338;-59
2024/04/11 09:03:13;;;;;;;5.57;2.20;;;17.40;81.30;;;;;;5424781;26;20235;-59
2024/04/11 09:05:39;;;;;;;8.60;2.17;;;16.90;83.30;;;;;;5430299;26;20231;-59
2024/04/11 09:08:10;;;;;;;6.25;1.98;;;16.70;83.80;;;;;;5432688;26;20230;-59
2024/04/11 09:10:36;;;;;;;5.85;2.30;;;16.60;81.80;;;;;;5427499;26;20230;-59
2024/04/11 09:13:06;;;;;;;4.10;1.77;;;16.70;80.70;;;;;;5424441;26;20285;-59
2024/04/11 09:15:32;;;;;;;5.72;1.90;;;16.70;81.90;;;;;;5428078;26;20262;-59
2024/04/11 09:18:00;;;;;;;7.00;2.22;;;16.60;83.70;;;;;;5432384;26;20237;-59
2024/04/11 09:20:32;;;;;;;5.47;2.15;;;16.50;84.70;;;;;;5431004;26;20257;-60
2024/04/11 09:23:03;;;;;;;7.68;2.30;;;16.50;81.70;;;;;;5424657;26;20239;-60
2024/04/11 09:25:30;;;;;;;4.30;2.30;;;16.70;83.10;;;;;;5426550;26;20239;-59
2024/04/11 09:28:01;;;;;;;4.80;2.10;;;16.80;83.20;;;;;;5431532;26;20757;-59
2024/04/11 09:30:29;;;;;;;3.65;2.00;;;16.80;81.60;;;;;;5431236;26;20601;-59
2024/04/11 09:33:04;;;;;;;3.78;1.95;;;16.60;81.30;;;;;;5424290;26;20241;-58
2024/04/11 09:35:40;;;;;;;4.53;1.58;;;16.50;81.10;;;;;;5425891;26;20270;-60
2024/04/11 09:38:12;;;;;;;4.25;1.50;;;16.60;80.60;;;;;;5432463;26;20300;-60
2024/04/11 09:40:42;;;;;;;6.70;1.80;;;16.70;80.00;;;;;;5427603;26;20246;-59
2024/04/11 09:43:15;;;;;;;7.40;2.00;;;16.80;80.40;;;;;;5424064;26;20441;-61
2024/04/11 09:45:47;;;;;;;5.88;1.98;;;16.80;80.70;;;;;;5386105;26;20228;-60
2024/04/11 09:48:16;;;;;;;4.88;1.77;;;16.70;80.80;;;;;;5390607;26;20243;-59
2024/04/11 09:50:48;;;;;;;7.05;1.67;;;16.70;79.90;;;;;;5386003;26;20231;-63
2024/04/11 09:53:26;;;;;;;5.28;1.77;;;16.90;79.50;;;;;;5383967;26;20248;-62
2024/04/11 09:55:53;;;;;;;4.88;1.73;;;17.10;79.80;;;;;;5398784;26;20226;-64
2024/04/11 09:58:23;;;;;;;6.82;1.80;;;17.40;78.30;;;;;;5431304;26;20233;-63
2024/04/11 10:01:04;;;;;;;5.85;2.13;;;17.50;78.30;;;;;;5424043;26;20231;-62
2024/04/11 10:03:33;;;;;;;4.63;1.88;;;17.70;77.90;;;;;;5425084;26;20235;-61
2024/04/11 10:06:04;;;;;;;2.53;1.40;;;17.90;77.20;;;;;;5431506;26;20242;-61
2024/04/11 10:08:37;;;;;;;3.80;1.67;;;18.00;76.90;;;;;;5430123;26;20472;-61
2024/04/11 10:11:03;;;;;;;2.92;1.45;;;18.10;76.70;;;;;;5423355;26;20266;-61
2024/04/11 10:13:40;;;;;;;6.00;1.98;;;18.20;76.60;;;;;;5424632;26;20239;-61
2024/04/11 10:16:13;;;;;;;4.97;1.73;;;18.00;76.90;;;;;;5431618;26;20229;-61
2024/04/11 10:18:45;;;;;;;3.60;1.90;;;18.10;76.90;;;;;;5427196;26;20234;-60
2024/04/11 10:21:24;;;;;;;4.20;1.70;;;18.30;76.50;;;;;;5422783;26;20239;-61
2024/04/11 10:23:53;;;;;;;5.63;1.83;;;18.20;77.30;;;;;;5431012;26;20671;-61
2024/04/11 10:26:29;;;;;;;4.78;1.50;;;18.40;76.70;;;;;;5431032;26;20273;-61
2024/04/11 10:28:57;;;;;;;3.97;1.35;;;18.60;74.80;;;;;;5399099;26;20333;-62
2024/04/11 10:31:25;;;;;;;7.30;2.08;;;18.70;74.90;;;;;;5431148;26;20322;-63
2024/04/11 10:33:58;;;;;;;3.40;1.80;;;18.80;74.60;;;;;;5423643;26;20227;-65
2024/04/11 10:36:32;;;;;;;3.97;1.58;;;18.90;74.10;;;;;;5423248;26;20235;-64
2024/04/11 10:39:01;;;;;;;3.35;1.42;;;18.80;71.90;;;;;;5386584;26;20227;-67
2024/04/11 10:41:28;;;;;;;2.65;1.63;;;18.80;72.00;;;;;;5394105;26;20661;-62
2024/04/11 10:43:56;;;;;;;4.20;1.70;;;18.60;71.70;;;;;;5392003;26;20239;-59
2024/04/11 10:46:23;;;;;;;4.25;1.40;;;18.30;73.10;;;;;;5392501;26;20274;-59
2024/04/11 10:48:56;;;;;;;4.25;1.48;;;18.20;74.00;;;;;;5391801;26;20272;-60
2024/04/11 10:51:22;;;;;;;3.83;1.45;;;18.30;74.90;;;;;;5392542;26;20729;-60
2024/04/11 10:54:08;;;;;;;4.50;1.40;;;18.50;73.60;;;;;;5386790;26;20348;-60
2024/04/11 10:56:37;;;;;;;3.58;1.58;;;18.70;73.60;;;;;;5387827;26;20309;-60
2024/04/11 10:59:12;;;;;;;3.45;1.55;;;18.90;72.20;;;;;;5391926;26;20235;-58
2024/04/11 11:01:41;;;;;;;5.35;1.45;;;19.00;71.50;;;;;;5389515;26;20299;-59
2024/04/11 11:04:09;;;;;;;5.82;1.95;;;19.20;72.20;;;;;;5386243;26;20305;-60
2024/04/11 11:06:44;;;;;;;4.07;1.42;;;19.30;70.80;;;;;;5387833;26;20266;-60
2024/04/11 11:09:19;;;;;;;5.55;1.33;;;19.50;70.80;;;;;;5391718;26;20654;-61
2024/04/11 11:11:46;;;;;;;3.20;1.52;;;19.50;70.30;;;;;;5388113;26;20230;-62
2024/04/11 11:14:17;;;;;;;4.22;1.70;;;19.00;71.60;;;;;;5385692;26;20252;-61
2024/04/11 11:16:44;;;;;;;8.38;2.10;;;18.70;72.40;;;;;;5390015;26;20267;-61
2024/04/11 11:19:14;;;;;;;4.00;1.52;;;18.60;72.30;;;;;;5392142;26;20303;-61
2024/04/11 11:21:44;;;;;;;4.40;1.55;;;18.70;71.80;;;;;;5388683;26;20278;-61
2024/04/11 11:24:16;;;;;;;2.78;1.40;;;18.60;71.10;;;;;;5386302;26;20297;-62
2024/04/11 11:26:46;;;;;;;3.85;1.40;;;18.60;71.50;;;;;;5389160;26;20259;-61
2024/04/11 11:29:20;;;;;;;2.95;1.38;;;18.80;71.10;;;;;;5392057;26;20281;-62
2024/04/11 11:31:50;;;;;;;3.80;1.40;;;19.00;69.40;;;;;;5392017;26;20718;-64
2024/04/11 11:34:27;;;;;;;3.33;1.60;;;19.30;68.40;;;;;;5391946;26;20351;-61
2024/04/11 11:36:59;;;;;;;5.78;1.50;;;19.40;68.30;;;;;;5385812;26;20666;-61
2024/04/11 11:39:33;;;;;;;4.82;1.48;;;19.50;67.10;;;;;;5385684;26;20581;-63
2024/04/11 11:42:22;;;;;;;5.93;1.90;;;19.40;65.90;;;;;;5379215;26;20327;-59
2024/04/11 11:47:45;;;;;;;3.67;1.17;;;19.10;68.00;;;;;;5381931;26;20278;-60
2024/04/11 11:50:21;;;;;;;3.10;1.50;;;19.20;67.40;;;;;;5391436;26;20279;-59
2024/04/11 11:52:51;;;;;;;2.30;1.10;;;19.10;67.30;;;;;;5387685;26;20628;-59
2024/04/11 11:55:19;;;;;;;2.50;1.50;;;19.10;67.20;;;;;;5386507;26;20232;-60
2024/04/11 11:57:54;;;;;;;2.83;1.20;;;19.00;67.20;;;;;;5390221;26;20306;-60
2024/04/11 12:00:23;;;;;;;3.63;1.40;;;19.10;67.30;;;;;;5392231;26;20243;-59
2024/04/11 12:02:56;;;;;;;3.90;1.40;;;19.20;66.60;;;;;;5387208;26;20247;-58
2024/04/11 12:05:23;;;;;;;2.97;1.35;;;19.40;66.70;;;;;;5386289;26;20304;-58
2024/04/11 12:07:57;;;;;;;3.72;1.48;;;19.50;66.60;;;;;;5391300;26;20239;-58
2024/04/11 12:10:29;;;;;;;3.00;1.50;;;19.60;66.10;;;;;;5392276;26;20231;-58
2024/04/11 12:13:18;;;;;;;4.07;1.40;;;19.60;66.70;;;;;;5433465;21;20268;-60
2024/04/11 12:15:45;;;;;;;3.83;1.40;;;19.60;65.80;;;;;;5470555;26;20329;-60
2024/04/11 12:18:16;;;;;;;4.40;1.50;;;19.80;65.50;;;;;;5467932;26;20272;-59
2024/04/11 12:20:43;;;;;;;4.13;1.52;;;20.00;65.50;;;;;;5471118;26;20298;-61
2024/04/11 12:23:14;;;;;;;5.70;2.05;;;20.20;65.20;;;;;;5474385;26;20588;-60
2024/04/11 12:25:44;;;;;;;5.68;1.55;;;20.30;64.60;;;;;;5471576;26;20276;-60
2024/04/11 12:28:16;;;;;;;4.50;1.77;;;20.10;65.00;;;;;;5467863;26;20719;-60
2024/04/11 12:30:42;;;;;;;5.18;1.85;;;20.00;65.30;;;;;;5470479;26;20652;-60
2024/04/11 12:33:10;;;;;;;4.18;2.08;;;20.10;65.60;;;;;;5473659;26;20287;-60
2024/04/11 12:35:45;;;;;;;3.22;1.48;;;20.20;65.70;;;;;;5472014;26;20267;-61
2024/04/11 12:38:16;;;;;;;3.67;1.80;;;20.20;65.30;;;;;;5467501;26;20792;-61
2024/04/11 12:40:48;;;;;;;3.35;1.80;;;20.10;65.60;;;;;;5470080;26;20722;-60
2024/04/11 12:43:18;;;;;;;5.72;3.85;;;20.20;65.20;;;;;;5473343;26;20236;-60
2024/04/11 12:45:52;;;;;;;3.17;1.60;;;20.30;65.20;;;;;;5470244;26;20237;-59
2024/04/11 12:48:20;;;;;;;4.03;1.60;;;20.50;65.50;;;;;;5467303;26;20322;-60
2024/04/11 12:50:50;;;;;;;2.90;1.55;;;20.70;65.40;;;;;;5470756;26;20230;-60
2024/04/11 12:53:21;;;;;;;2.22;1.40;;;20.90;64.40;;;;;;5473268;26;20236;-59
2024/04/11 12:55:52;;;;;;;3.53;1.38;;;21.10;64.60;;;;;;5469701;26;20821;-60
2024/04/11 12:58:24;;;;;;;2.63;1.30;;;21.20;64.70;;;;;;5467160;26;20233;-60
2024/04/11 13:00:57;;;;;;;4.53;1.48;;;21.20;64.10;;;;;;5471320;26;20608;-59
2024/04/11 13:03:52;;;;;;;6.05;2.03;;;21.30;63.40;;;;;;5473344;26;20244;-60
2024/04/11 13:06:27;;;;;;;3.72;1.27;;;21.40;63.10;;;;;;5467050;26;20289;-60